createdAt,value
2019-03-26T00:09:13.728Z,56.20
2019-03-26T00:15:00.459Z,56.10
2019-03-26T00:20:50.939Z,56.20
2019-03-26T00:26:40.032Z,56.20
2019-03-26T00:32:29.197Z,56.20
2019-03-26T00:35:09.838Z,56.20
2019-03-26T00:37:50.664Z,56.20
2019-03-26T00:43:50.401Z,56.20
2019-03-26T00:46:31.882Z,56.20
2019-03-26T00:49:13.170Z,56.20
2019-03-26T00:51:54.827Z,56.20
2019-03-26T01:13:33.786Z,56.20
2019-03-26T01:19:36.810Z,56.30
2019-03-26T01:34:50.342Z,56.20
2019-03-26T01:37:30.975Z,56.30
2019-03-26T01:40:11.923Z,56.30
2019-03-26T01:42:52.506Z,56.30
2019-03-26T01:45:33.356Z,56.30
2019-03-26T01:48:15.082Z,56.30
2019-03-26T01:50:56.617Z,56.20
2019-03-26T01:53:37.540Z,56.20
2019-03-26T01:56:18.178Z,56.20
2019-03-26T01:58:58.868Z,56.20
2019-03-26T02:01:39.781Z,56.20
2019-03-26T02:04:39.690Z,56.30
2019-03-26T02:07:21.343Z,56.20
2019-03-26T02:10:02.793Z,56.10
2019-03-26T02:12:43.852Z,56.20
2019-03-26T02:15:25.440Z,56.20
2019-03-26T02:21:26.173Z,56.20
2019-03-26T02:24:07.802Z,56.20
2019-03-26T02:26:48.478Z,56.20
2019-03-26T02:29:29.950Z,56.20
2019-03-26T02:35:29.603Z,56.20
2019-03-26T02:38:10.497Z,56.20
2019-03-26T02:40:51.172Z,56.20
2019-03-26T02:43:31.814Z,56.20
2019-03-26T02:46:31.270Z,56.20
2019-03-26T02:52:21.046Z,56.20
2019-03-26T02:55:21.507Z,56.20
2019-03-26T02:58:03.129Z,56.20
2019-03-26T03:00:43.868Z,56.10
2019-03-26T03:06:44.034Z,56.20
2019-03-26T03:09:25.625Z,56.20
2019-03-26T03:18:19.891Z,56.10
2019-03-26T03:21:00.906Z,56.10
2019-03-26T03:23:41.742Z,56.10
2019-03-26T03:26:23.553Z,56.10
2019-03-26T03:29:04.813Z,56.10
2019-03-26T03:31:45.717Z,56.10
2019-03-26T03:34:46.029Z,56.10
2019-03-26T03:37:27.686Z,55.90
2019-03-26T03:40:09.125Z,56.10
2019-03-26T03:42:49.959Z,56.10
2019-03-26T03:45:31.650Z,56.00
2019-03-26T03:48:12.996Z,56.10
2019-03-26T03:53:58.474Z,56.10
2019-03-26T04:02:51.154Z,56.10
2019-03-26T04:06:08.857Z,56.00
2019-03-26T04:11:54.177Z,56.10
2019-03-26T04:17:53.433Z,56.10
2019-03-26T04:23:31.298Z,56.10
2019-03-26T04:29:14.121Z,56.70
2019-03-26T04:34:55.003Z,56.00
2019-03-26T04:41:12.659Z,56.10
2019-03-26T04:44:01.604Z,56.10
2019-03-26T04:47:25.431Z,56.10
2019-03-26T04:50:14.055Z,56.10
2019-03-26T04:56:14.240Z,56.10
2019-03-26T04:59:02.792Z,56.10
2019-03-26T05:01:51.457Z,56.10
2019-03-26T05:07:48.233Z,56.10
2019-03-26T05:10:36.869Z,56.00
2019-03-26T05:16:11.787Z,55.80
2019-03-26T05:18:52.903Z,56.10
2019-03-26T05:27:45.580Z,56.10
2019-03-26T05:30:26.332Z,56.10
2019-03-26T05:33:07.782Z,56.10
2019-03-26T05:35:51.404Z,56.10
2019-03-26T05:38:31.092Z,56.10
2019-03-26T05:41:12.022Z,56.10
2019-03-26T05:47:01.571Z,56.00
2019-03-26T05:49:41.195Z,56.00
2019-03-26T05:52:22.713Z,56.00
2019-03-26T05:55:08.137Z,56.00
2019-03-26T05:57:48.826Z,56.00
2019-03-26T06:00:30.100Z,56.00
2019-03-26T06:03:11.714Z,56.00
2019-03-26T06:09:31.416Z,56.00
2019-03-26T06:12:12.089Z,56.00
2019-03-26T06:14:52.844Z,56.00
2019-03-26T06:20:52.937Z,56.00
2019-03-26T06:23:33.603Z,56.00
2019-03-26T06:26:14.590Z,56.00
2019-03-26T06:28:55.246Z,56.00
2019-03-26T06:31:36.810Z,56.00
2019-03-26T06:34:17.814Z,56.00
2019-03-26T06:37:18.377Z,55.90
2019-03-26T06:43:04.175Z,56.00
2019-03-26T06:45:45.673Z,55.90
2019-03-26T06:48:26.301Z,56.00
2019-03-26T06:51:07.316Z,55.90
2019-03-26T06:53:48.121Z,56.00
2019-03-26T06:56:32.615Z,55.90
2019-03-26T06:59:13.792Z,55.90
2019-03-26T07:01:54.499Z,56.00
2019-03-26T07:04:35.812Z,56.00
2019-03-26T07:07:30.537Z,56.00
2019-03-26T07:13:05.406Z,55.90
2019-03-26T07:15:46.749Z,55.90
2019-03-26T07:18:27.487Z,56.00
2019-03-26T07:21:09.116Z,56.00
2019-03-26T07:26:59.335Z,55.90
2019-03-26T07:29:40.762Z,55.90
2019-03-26T07:32:22.004Z,56.00
2019-03-26T07:35:03.022Z,56.00
2019-03-26T07:41:03.573Z,55.90
2019-03-26T07:43:45.414Z,55.90
2019-03-26T07:46:26.636Z,55.90
2019-03-26T07:49:07.802Z,55.90
2019-03-26T07:51:48.564Z,55.90
2019-03-26T07:54:29.210Z,55.90
2019-03-26T07:57:10.749Z,55.90
2019-03-26T07:59:51.516Z,56.50
2019-03-26T08:02:32.973Z,55.90
2019-03-26T08:05:15.591Z,55.90
2019-03-26T08:07:58.463Z,55.90
2019-03-26T08:10:39.375Z,55.90
2019-03-26T08:13:20.138Z,55.90
2019-03-26T08:16:01.723Z,55.90
2019-03-26T08:18:43.218Z,55.90
2019-03-26T08:24:29.398Z,55.80
2019-03-26T08:27:10.578Z,55.80
2019-03-26T08:29:51.957Z,55.90
2019-03-26T08:32:33.551Z,55.80
2019-03-26T08:35:14.251Z,55.80
2019-03-26T08:44:22.606Z,55.70
2019-03-26T08:47:04.144Z,55.70
2019-03-26T08:49:45.753Z,55.70
2019-03-26T08:52:26.935Z,55.70
2019-03-26T08:55:08.378Z,55.60
2019-03-26T08:57:49.031Z,55.60
2019-03-26T09:00:32.027Z,55.60
2019-03-26T09:03:12.656Z,55.60
2019-03-26T09:05:54.092Z,55.70
2019-03-26T09:08:35.510Z,55.70
2019-03-26T09:11:16.087Z,55.60
2019-03-26T09:13:56.729Z,55.70
2019-03-26T09:19:46.029Z,55.70
2019-03-26T09:22:28.757Z,55.70
2019-03-26T09:25:09.639Z,55.60
2019-03-26T09:27:52.599Z,55.70
2019-03-26T09:30:33.581Z,55.60
2019-03-26T09:36:22.077Z,55.70
2019-03-26T09:39:10.934Z,55.70
2019-03-26T09:41:59.565Z,55.70
2019-03-26T09:47:46.039Z,55.70
2019-03-26T09:53:35.282Z,55.70
2019-03-26T09:59:24.379Z,55.80
2019-03-26T10:02:05.951Z,56.30
2019-03-26T10:04:46.724Z,55.70
2019-03-26T10:07:28.192Z,55.60
2019-03-26T10:10:09.583Z,55.60
2019-03-26T10:12:50.264Z,55.60
2019-03-26T10:18:39.818Z,55.60
2019-03-26T10:21:21.334Z,55.60
2019-03-26T10:24:02.710Z,55.60
2019-03-26T10:26:44.129Z,55.70
2019-03-26T10:29:30.397Z,55.60
2019-03-26T10:32:07.449Z,55.60
2019-03-26T10:34:48.101Z,55.60
2019-03-26T10:37:29.512Z,55.50
2019-03-26T10:40:10.670Z,55.50
2019-03-26T10:42:51.728Z,55.50
2019-03-26T10:48:40.945Z,55.60
2019-03-26T10:51:21.613Z,55.50
2019-03-26T10:57:22.037Z,55.60
2019-03-26T11:00:03.111Z,55.60
2019-03-26T11:02:43.844Z,55.60
2019-03-26T11:05:25.402Z,55.60
2019-03-26T11:08:07.011Z,55.60
2019-03-26T11:10:47.771Z,55.60
2019-03-26T11:13:29.326Z,55.60
2019-03-26T11:16:10.020Z,55.60
2019-03-26T11:18:50.870Z,55.60
2019-03-26T11:27:44.477Z,55.60
2019-03-26T11:36:35.133Z,55.70
2019-03-26T11:39:32.561Z,55.70
2019-03-26T11:45:08.246Z,55.70
2019-03-26T11:47:56.913Z,55.70
2019-03-26T11:53:54.662Z,55.70
2019-03-26T11:56:43.215Z,55.70
2019-03-26T12:02:26.417Z,55.70
2019-03-26T12:05:16.619Z,55.70
2019-03-26T12:08:06.422Z,55.70
2019-03-26T12:10:55.012Z,55.70
2019-03-26T12:13:24.792Z,55.70
2019-03-26T12:15:54.482Z,55.70
2019-03-26T12:18:24.094Z,55.70
2019-03-26T12:20:53.963Z,55.70
2019-03-26T12:23:23.589Z,55.70
2019-03-26T12:25:53.254Z,55.70
2019-03-26T12:28:22.927Z,56.30
2019-03-26T12:30:52.523Z,55.70
2019-03-26T12:33:22.192Z,55.80
2019-03-26T12:35:51.854Z,55.70
2019-03-26T12:38:21.972Z,55.70
2019-03-26T12:40:52.150Z,56.30
2019-03-26T12:43:21.911Z,55.70
2019-03-26T12:45:51.541Z,55.70
2019-03-26T12:48:21.131Z,55.70
2019-03-26T12:50:50.795Z,55.70
2019-03-26T12:53:20.412Z,55.70
2019-03-26T12:55:50.024Z,55.60
2019-03-26T12:58:31.213Z,55.60
2019-03-26T13:00:51.371Z,55.60
2019-03-26T13:03:21.061Z,55.60
2019-03-26T13:05:50.682Z,55.60
2019-03-26T13:08:20.465Z,55.60
2019-03-26T13:10:53.788Z,55.60
2019-03-26T13:13:21.650Z,55.60
2019-03-26T13:15:51.407Z,55.60
2019-03-26T13:18:20.933Z,55.60
2019-03-26T13:20:50.780Z,55.50
2019-03-26T13:23:20.383Z,55.60
2019-03-26T13:25:50.016Z,55.50
2019-03-26T13:28:19.578Z,55.50
2019-03-26T13:30:49.177Z,55.60
2019-03-26T13:33:18.822Z,55.60
2019-03-26T13:35:48.821Z,55.50
2019-03-26T13:38:18.501Z,55.50
2019-03-26T13:40:48.255Z,55.60
2019-03-26T13:43:18.143Z,55.60
2019-03-26T13:45:47.763Z,55.60
2019-03-26T13:48:17.477Z,55.60
2019-03-26T13:50:47.103Z,55.60
2019-03-26T13:53:16.922Z,55.60
2019-03-26T13:55:46.525Z,55.60
2019-03-26T13:58:16.064Z,55.60
2019-03-26T14:00:45.751Z,55.60
2019-03-26T14:03:15.431Z,55.60
2019-03-26T14:05:45.052Z,55.60
2019-03-26T14:08:14.654Z,55.60
2019-03-26T14:10:44.268Z,55.60
2019-03-26T14:13:13.783Z,55.70
2019-03-26T14:15:43.357Z,55.60
2019-03-26T14:18:13.287Z,55.60
2019-03-26T14:20:42.963Z,55.60
2019-03-26T14:23:12.768Z,55.60
2019-03-26T14:25:42.440Z,55.60
2019-03-26T14:28:11.978Z,55.60
2019-03-26T14:30:43.254Z,55.60
2019-03-26T14:33:13.035Z,55.70
2019-03-26T14:35:42.645Z,55.60
2019-03-26T14:38:12.245Z,55.70
2019-03-26T14:40:54.194Z,55.60
2019-03-26T14:43:13.276Z,55.70
2019-03-26T14:45:42.854Z,55.60
2019-03-26T14:48:12.460Z,55.70
2019-03-26T14:50:42.439Z,55.70
2019-03-26T14:53:12.490Z,55.70
2019-03-26T14:55:45.128Z,55.70
2019-03-26T14:58:14.756Z,55.70
2019-03-26T15:00:44.728Z,55.70
2019-03-26T15:03:14.568Z,55.60
2019-03-26T15:05:44.082Z,55.70
2019-03-26T15:08:13.586Z,55.60
2019-03-26T15:10:43.505Z,55.60
2019-03-26T15:13:13.163Z,55.60
2019-03-26T15:15:42.785Z,55.70
2019-03-26T15:18:12.557Z,55.70
2019-03-26T15:20:42.155Z,55.70
2019-03-26T15:23:11.732Z,55.70
2019-03-26T15:25:41.486Z,55.70
2019-03-26T15:28:11.854Z,55.60
2019-03-26T15:30:41.762Z,55.60
2019-03-26T15:33:11.658Z,55.70
2019-03-26T15:35:41.649Z,55.60
2019-03-26T15:38:11.437Z,55.70
2019-03-26T15:40:41.225Z,55.70
2019-03-26T15:43:10.961Z,55.70
2019-03-26T15:45:40.591Z,55.70
2019-03-26T15:48:10.273Z,55.70
2019-03-26T15:50:41.361Z,55.70
2019-03-26T15:53:11.208Z,55.70
2019-03-26T15:55:42.147Z,55.70
2019-03-26T15:58:11.959Z,55.70
2019-03-26T16:00:42.012Z,55.70
2019-03-26T16:03:11.771Z,55.70
2019-03-26T16:05:41.296Z,55.70
2019-03-26T16:08:11.053Z,55.70
2019-03-26T16:10:41.078Z,55.70
2019-03-26T16:13:10.764Z,55.70
2019-03-26T16:15:44.544Z,55.80
2019-03-26T16:18:11.921Z,55.70
2019-03-26T16:20:41.598Z,55.80
2019-03-26T16:23:11.193Z,55.80
2019-03-26T16:25:40.966Z,55.70
2019-03-26T16:28:10.680Z,55.80
2019-03-26T16:30:40.353Z,55.70
2019-03-26T16:33:09.984Z,55.70
2019-03-26T16:35:40.417Z,55.70
2019-03-26T16:38:11.242Z,55.70
2019-03-26T16:40:40.944Z,55.70
2019-03-26T16:43:10.665Z,55.70
2019-03-26T16:45:40.598Z,55.70
2019-03-26T16:48:10.331Z,55.70
2019-03-26T16:50:40.031Z,55.80
2019-03-26T16:53:09.785Z,55.80
2019-03-26T16:55:39.474Z,55.80
2019-03-26T16:58:09.210Z,55.80
2019-03-26T17:00:38.943Z,55.80
2019-03-26T17:03:08.487Z,55.80
2019-03-26T17:05:38.234Z,55.90
2019-03-26T17:08:08.045Z,55.90
2019-03-26T17:10:37.850Z,55.80
2019-03-26T17:13:07.845Z,55.80
2019-03-26T17:15:37.789Z,55.80
2019-03-26T17:18:07.837Z,55.90
2019-03-26T17:20:37.515Z,55.90
2019-03-26T17:23:07.205Z,56.50
2019-03-26T17:25:36.942Z,55.90
2019-03-26T17:28:06.758Z,55.90
2019-03-26T17:30:36.653Z,55.90
2019-03-26T17:33:06.405Z,55.90
2019-03-26T17:35:36.065Z,55.90
2019-03-26T17:38:05.802Z,55.90
2019-03-26T17:40:35.485Z,55.90
2019-03-26T17:43:05.866Z,55.90
2019-03-26T17:45:35.882Z,55.90
2019-03-26T17:48:05.503Z,55.90
2019-03-26T17:50:35.088Z,55.90
2019-03-26T17:53:04.680Z,55.90
2019-03-26T17:55:34.675Z,55.90
2019-03-26T17:58:04.186Z,55.90
2019-03-26T18:00:38.913Z,55.90
2019-03-26T18:03:08.530Z,55.90
2019-03-26T18:05:38.211Z,55.90
2019-03-26T18:08:08.061Z,55.90
2019-03-26T18:10:37.807Z,55.90
2019-03-26T18:13:07.664Z,55.90
2019-03-26T18:15:37.192Z,55.90
2019-03-26T18:18:07.188Z,55.90
2019-03-26T18:20:37.031Z,55.90
2019-03-26T18:23:06.703Z,56.00
2019-03-26T18:25:36.404Z,55.90
2019-03-26T18:28:06.220Z,56.00
2019-03-26T18:30:36.117Z,55.90
2019-03-26T18:33:05.762Z,55.90
2019-03-26T18:35:35.740Z,55.90
2019-03-26T18:38:05.384Z,55.90
2019-03-26T18:40:34.971Z,55.90
2019-03-26T18:43:04.702Z,55.90
2019-03-26T18:45:53.928Z,56.00
2019-03-26T18:48:23.461Z,56.00
2019-03-26T18:50:53.238Z,55.90
2019-03-26T18:53:22.929Z,55.90
2019-03-26T18:55:52.630Z,55.90
2019-03-26T18:58:22.308Z,55.90
2019-03-26T19:00:51.953Z,55.90
2019-03-26T19:03:21.555Z,55.90
2019-03-26T19:05:51.463Z,55.90
2019-03-26T19:08:21.163Z,55.90
2019-03-26T19:10:50.777Z,55.90
2019-03-26T19:13:20.379Z,56.00
2019-03-26T19:15:50.203Z,55.90
2019-03-26T19:18:19.887Z,56.00
2019-03-26T19:21:01.354Z,55.90
2019-03-26T19:23:20.921Z,56.00
2019-03-26T19:25:50.597Z,56.00
2019-03-26T19:28:20.541Z,56.00
2019-03-26T19:30:50.072Z,56.00
2019-03-26T19:33:19.654Z,56.00
2019-03-26T19:35:49.634Z,56.00
2019-03-26T19:38:19.164Z,55.90
2019-03-26T19:40:48.840Z,55.90
2019-03-26T19:43:18.539Z,55.90
2019-03-26T19:45:51.342Z,55.90
2019-03-26T19:48:21.421Z,55.90
2019-03-26T19:50:51.261Z,55.90
2019-03-26T19:53:21.003Z,55.90
2019-03-26T19:55:50.786Z,55.90
2019-03-26T19:58:20.544Z,55.90
2019-03-26T20:00:50.317Z,55.90
2019-03-26T20:03:20.117Z,55.90
2019-03-26T20:05:50.971Z,55.90
2019-03-26T20:08:23.500Z,55.90
2019-03-26T20:10:53.177Z,55.90
2019-03-26T20:13:24.621Z,55.90
2019-03-26T20:15:54.577Z,55.90
2019-03-26T20:18:25.304Z,55.90
2019-03-26T20:20:58.884Z,55.90
2019-03-26T20:23:28.836Z,55.90
2019-03-26T20:25:58.515Z,55.90
2019-03-26T20:28:28.274Z,55.90
2019-03-26T20:30:58.315Z,55.90
2019-03-26T20:33:28.003Z,56.00
2019-03-26T20:35:57.598Z,55.90
2019-03-26T20:38:27.123Z,55.90
2019-03-26T20:40:56.888Z,55.90
2019-03-26T20:43:36.809Z,56.00
2019-03-26T20:45:57.735Z,55.90
2019-03-26T20:48:27.476Z,55.90
2019-03-26T20:50:57.425Z,55.90
2019-03-26T20:53:27.150Z,55.90
2019-03-26T20:55:56.734Z,55.90
2019-03-26T20:58:26.456Z,55.90
2019-03-26T21:00:56.049Z,55.90
2019-03-26T21:03:25.648Z,56.00
2019-03-26T21:05:55.199Z,55.90
2019-03-26T21:08:24.792Z,55.90
2019-03-26T21:10:54.381Z,55.90
2019-03-26T21:13:23.912Z,56.00
2019-03-26T21:15:57.361Z,55.90
2019-03-26T21:18:24.789Z,55.90
2019-03-26T21:20:54.475Z,56.00
2019-03-26T21:23:24.264Z,56.00
2019-03-26T21:25:53.935Z,55.90
2019-03-26T21:28:23.514Z,56.00
2019-03-26T21:30:53.035Z,56.00
2019-03-26T21:33:22.644Z,56.00
2019-03-26T21:35:52.510Z,56.00
2019-03-26T21:38:22.411Z,55.90
2019-03-26T21:40:52.208Z,55.90
2019-03-26T21:43:22.040Z,56.00
2019-03-26T21:45:51.791Z,55.90
2019-03-26T21:48:21.402Z,55.90
2019-03-26T21:50:51.098Z,55.90
2019-03-26T21:53:20.804Z,55.90
2019-03-26T21:55:50.616Z,56.00
2019-03-26T21:58:20.152Z,56.00
2019-03-26T22:00:49.792Z,55.90
2019-03-26T22:03:19.472Z,55.90
2019-03-26T22:05:49.174Z,55.90
2019-03-26T22:08:18.834Z,55.90
2019-03-26T22:10:48.451Z,55.90
2019-03-26T22:13:18.119Z,55.90
2019-03-26T22:15:47.739Z,55.90
2019-03-26T22:18:17.332Z,55.90
2019-03-26T22:20:47.113Z,55.90
2019-03-26T22:23:16.709Z,55.90
2019-03-26T22:25:46.325Z,55.90
2019-03-26T22:28:16.048Z,55.90
2019-03-26T22:30:45.678Z,55.90
2019-03-26T22:33:15.227Z,55.90
2019-03-26T22:35:44.891Z,55.90
2019-03-26T22:38:14.483Z,56.50
2019-03-26T22:40:44.239Z,55.90
2019-03-26T22:43:13.990Z,55.90
2019-03-26T22:45:43.529Z,55.90
2019-03-26T22:48:13.147Z,55.90
2019-03-26T22:50:42.828Z,55.90
2019-03-26T22:53:12.417Z,55.90
2019-03-26T22:55:42.297Z,55.90
2019-03-26T22:58:11.954Z,55.90
2019-03-26T23:00:42.196Z,55.90
2019-03-26T23:03:11.859Z,55.90
2019-03-26T23:05:41.582Z,55.90
2019-03-26T23:08:11.258Z,55.90
2019-03-26T23:10:40.875Z,55.90
2019-03-26T23:13:10.561Z,55.90
2019-03-26T23:15:40.248Z,55.90
2019-03-26T23:18:09.925Z,55.90
2019-03-26T23:20:39.634Z,55.90
2019-03-26T23:23:09.258Z,55.90
2019-03-26T23:25:38.790Z,55.90
2019-03-26T23:28:08.475Z,55.90
2019-03-26T23:30:38.184Z,56.00
2019-03-26T23:33:07.784Z,55.90
2019-03-26T23:35:37.459Z,55.90
2019-03-26T23:38:07.202Z,55.90
2019-03-26T23:40:37.465Z,55.90
2019-03-26T23:43:06.993Z,55.90
2019-03-26T23:45:36.604Z,56.00
2019-03-26T23:48:06.194Z,56.00
2019-03-26T23:50:35.800Z,55.90
2019-03-26T23:53:05.387Z,55.90
2019-03-26T23:55:35.280Z,55.90
2019-03-26T23:58:04.884Z,55.90
